createdAt,value
2023-05-14T00:00:48.533Z,11.43
2023-05-14T00:06:37.171Z,11.42
2023-05-14T00:12:24.547Z,11.68
2023-05-14T00:18:14.626Z,11.23
2023-05-14T00:24:01.757Z,11.42
2023-05-14T00:29:52.516Z,11.64
2023-05-14T00:35:41.428Z,11.45
2023-05-14T00:41:29.539Z,11.54
2023-05-14T00:47:16.732Z,11.53
2023-05-14T00:53:10.651Z,11.27
2023-05-14T00:58:57.460Z,10.92
2023-05-14T01:04:45.624Z,10.64
2023-05-14T01:10:54.823Z,10.96
2023-05-14T01:16:46.187Z,11.28
2023-05-14T01:22:33.576Z,11.29
2023-05-14T01:28:28.280Z,11.14
2023-05-14T01:34:21.891Z,11.24
2023-05-14T01:40:10.877Z,11.16
2023-05-14T01:46:04.099Z,11.52
2023-05-14T01:51:54.126Z,11.47
2023-05-14T01:57:43.909Z,11.56
2023-05-14T02:03:31.837Z,11.36
2023-05-14T02:09:18.772Z,11.50
2023-05-14T02:15:06.357Z,11.24
2023-05-14T02:20:53.253Z,10.80
2023-05-14T02:26:42.189Z,11.09
2023-05-14T02:32:36.014Z,11.11
2023-05-14T02:38:27.538Z,11.14
2023-05-14T02:44:16.523Z,10.46
2023-05-14T02:50:06.276Z,10.43
2023-05-14T02:55:56.298Z,10.51
2023-05-14T03:01:46.449Z,10.66
2023-05-14T03:07:33.909Z,10.75
2023-05-14T03:13:20.951Z,10.68
2023-05-14T03:19:10.009Z,10.82
2023-05-14T03:24:59.129Z,10.31
2023-05-14T03:30:46.189Z,10.62
2023-05-14T03:36:34.253Z,10.96
2023-05-14T03:42:22.889Z,11.09
2023-05-14T03:48:13.041Z,10.87
2023-05-14T03:54:00.159Z,10.63
2023-05-14T03:59:47.830Z,10.73
2023-05-14T04:05:35.988Z,10.13
2023-05-14T04:11:26.765Z,10.14
2023-05-14T04:17:16.107Z,10.49
2023-05-14T04:23:02.967Z,10.55
2023-05-14T04:28:52.217Z,10.82
2023-05-14T04:34:42.634Z,10.87
2023-05-14T04:40:31.517Z,10.78
2023-05-14T04:46:18.403Z,10.41
2023-05-14T04:52:08.409Z,10.46
2023-05-14T04:57:55.732Z,10.49
2023-05-14T05:03:42.534Z,10.63
2023-05-14T05:09:30.369Z,10.46
2023-05-14T05:15:20.080Z,10.66
2023-05-14T05:21:10.553Z,10.55
2023-05-14T05:27:01.140Z,10.62
2023-05-14T05:32:50.710Z,10.92
2023-05-14T05:38:37.809Z,10.95
2023-05-14T05:44:24.972Z,10.94
2023-05-14T05:50:14.405Z,10.53
2023-05-14T05:56:04.338Z,10.67
2023-05-14T06:01:51.802Z,10.25
2023-05-14T06:07:39.558Z,10.48
2023-05-14T06:13:28.335Z,10.52
2023-05-14T06:19:18.399Z,10.75
2023-05-14T06:25:05.902Z,10.87
2023-05-14T06:30:54.758Z,10.87
2023-05-14T06:36:41.745Z,11.14
2023-05-14T06:42:28.594Z,11.06
2023-05-14T06:48:16.071Z,10.88
2023-05-14T06:54:03.109Z,11.30
2023-05-14T06:59:50.768Z,11.29
2023-05-14T07:05:40.872Z,11.23
2023-05-14T07:11:28.469Z,11.46
2023-05-14T07:17:17.559Z,11.46
2023-05-14T07:23:10.267Z,11.69
2023-05-14T07:29:03.717Z,11.63
2023-05-14T07:34:51.703Z,11.87
2023-05-14T07:40:39.789Z,11.90
2023-05-14T07:46:31.545Z,12.25
2023-05-14T07:52:25.928Z,12.41
2023-05-14T07:58:55.311Z,12.41
2023-05-14T08:04:42.759Z,12.75
2023-05-14T08:10:50.233Z,12.89
2023-05-14T08:16:37.396Z,12.90
2023-05-14T08:22:24.453Z,13.44
2023-05-14T08:28:11.542Z,13.58
2023-05-14T08:33:59.773Z,13.57
2023-05-14T08:39:46.938Z,13.90
2023-05-14T08:45:36.809Z,14.47
2023-05-14T08:51:26.940Z,15.04
2023-05-14T08:57:15.390Z,14.85
2023-05-14T09:03:38.100Z,14.32
2023-05-14T09:09:51.557Z,14.48
2023-05-14T09:15:44.561Z,13.92
2023-05-14T09:21:34.376Z,14.85
2023-05-14T09:27:27.838Z,15.44
2023-05-14T09:33:33.462Z,15.35
2023-05-14T09:39:27.576Z,15.83
2023-05-14T09:45:16.080Z,16.23
2023-05-14T09:51:04.599Z,16.81
2023-05-14T09:56:56.883Z,17.57
2023-05-14T10:02:51.484Z,18.02
2023-05-14T10:08:42.696Z,17.97
2023-05-14T10:14:39.979Z,17.97
2023-05-14T10:20:29.728Z,18.19
2023-05-14T10:26:18.198Z,19.15
2023-05-14T10:32:08.077Z,19.60
2023-05-14T10:37:55.673Z,19.88
2023-05-14T10:43:44.876Z,20.08
2023-05-14T10:49:43.054Z,20.63
2023-05-14T10:55:31.876Z,21.30
2023-05-14T11:01:20.140Z,21.40
2023-05-14T11:07:10.530Z,21.54
2023-05-14T11:12:58.818Z,21.62
2023-05-14T11:18:46.021Z,20.97
2023-05-14T11:24:35.087Z,21.51
2023-05-14T11:30:23.712Z,20.07
2023-05-14T11:36:15.636Z,20.57
2023-05-14T11:42:03.930Z,21.10
2023-05-14T11:47:53.328Z,21.67
2023-05-14T11:53:45.683Z,21.94
2023-05-14T11:59:32.928Z,22.10
2023-05-14T12:05:23.779Z,20.77
2023-05-14T12:11:10.879Z,20.13
2023-05-14T12:17:04.519Z,20.44
2023-05-14T12:23:02.570Z,20.75
2023-05-14T12:29:01.151Z,21.07
2023-05-14T12:34:51.219Z,19.96
2023-05-14T12:40:50.209Z,19.83
2023-05-14T12:46:37.530Z,20.09
2023-05-14T12:52:39.254Z,20.84
2023-05-14T12:58:28.778Z,20.89
2023-05-14T13:04:19.097Z,20.57
2023-05-14T13:10:07.175Z,20.56
2023-05-14T13:15:54.062Z,21.15
2023-05-14T13:21:41.099Z,21.54
2023-05-14T13:27:39.692Z,21.20
2023-05-14T13:33:29.608Z,21.43
2023-05-14T13:39:31.766Z,21.18
2023-05-14T13:45:21.282Z,21.73
2023-05-14T13:51:28.167Z,21.49
2023-05-14T13:57:24.631Z,20.86
2023-05-14T14:03:11.885Z,20.87
2023-05-14T14:09:02.199Z,20.61
2023-05-14T14:14:50.353Z,21.23
2023-05-14T14:20:38.846Z,21.53
2023-05-14T14:26:28.061Z,21.59
2023-05-14T14:32:17.106Z,21.81
2023-05-14T14:38:04.023Z,21.75
2023-05-14T14:43:50.953Z,21.75
2023-05-14T14:49:42.860Z,21.94
2023-05-14T14:55:30.500Z,21.83
2023-05-14T15:01:19.014Z,22.29
2023-05-14T15:07:06.475Z,22.37
2023-05-14T15:12:53.414Z,22.02
2023-05-14T15:18:41.737Z,22.14
2023-05-14T15:24:28.686Z,22.00
2023-05-14T15:30:15.999Z,21.98
2023-05-14T15:36:08.381Z,21.64
2023-05-14T15:41:56.628Z,21.70
2023-05-14T15:47:45.236Z,22.06
2023-05-14T15:53:32.376Z,22.20
2023-05-14T15:59:20.028Z,22.46
2023-05-14T16:05:08.463Z,22.74
2023-05-14T16:10:56.026Z,22.81
2023-05-14T16:16:43.977Z,22.41
2023-05-14T16:22:32.867Z,21.81
2023-05-14T16:28:22.755Z,21.85
2023-05-14T16:34:10.404Z,22.17
2023-05-14T16:39:57.709Z,21.90
2023-05-14T16:45:45.591Z,22.06
2023-05-14T16:51:49.646Z,22.11
2023-05-14T16:57:49.923Z,21.84
2023-05-14T17:03:42.043Z,21.74
2023-05-14T17:09:31.825Z,21.54
2023-05-14T17:15:22.022Z,21.58
2023-05-14T17:21:10.788Z,21.43
2023-05-14T17:26:57.644Z,20.99
2023-05-14T17:32:44.602Z,20.86
2023-05-14T17:38:35.169Z,20.66
2023-05-14T17:44:22.102Z,20.59
2023-05-14T17:50:11.021Z,20.62
2023-05-14T17:55:58.873Z,20.73
2023-05-14T18:01:46.016Z,20.61
2023-05-14T18:07:34.121Z,20.50
2023-05-14T18:13:24.621Z,20.45
2023-05-14T18:19:11.931Z,20.27
2023-05-14T18:24:59.092Z,20.29
2023-05-14T18:30:52.324Z,20.22
2023-05-14T18:36:45.979Z,20.07
2023-05-14T18:42:33.756Z,20.03
2023-05-14T18:48:30.626Z,19.84
2023-05-14T18:54:18.041Z,19.82
2023-05-14T19:00:10.916Z,19.67
2023-05-14T19:05:59.431Z,19.51
2023-05-14T19:11:48.441Z,19.48
2023-05-14T19:17:35.602Z,19.31
2023-05-14T19:23:22.869Z,19.08
2023-05-14T19:29:14.177Z,19.02
2023-05-14T19:35:02.280Z,18.94
2023-05-14T19:40:51.055Z,18.96
2023-05-14T19:46:45.064Z,18.93
2023-05-14T19:52:34.419Z,18.95
2023-05-14T19:58:23.409Z,18.86
2023-05-14T20:04:10.736Z,18.61
2023-05-14T20:09:59.718Z,18.64
2023-05-14T20:15:48.653Z,18.57
2023-05-14T20:21:35.764Z,18.49
2023-05-14T20:27:26.057Z,18.43
2023-05-14T20:33:13.826Z,18.46
2023-05-14T20:39:03.982Z,18.34
2023-05-14T20:45:00.208Z,18.22
2023-05-14T20:50:52.077Z,17.96
2023-05-14T20:56:45.115Z,17.76
2023-05-14T21:02:35.438Z,17.71
2023-05-14T21:08:23.301Z,17.68
2023-05-14T21:14:10.341Z,17.66
2023-05-14T21:19:58.538Z,17.42
2023-05-14T21:25:45.620Z,17.29
2023-05-14T21:31:32.849Z,17.34
2023-05-14T21:37:22.001Z,17.22
2023-05-14T21:43:16.053Z,17.27
2023-05-14T21:49:05.463Z,17.20
2023-05-14T21:55:28.861Z,17.15
2023-05-14T22:01:17.158Z,17.11
2023-05-14T22:07:04.572Z,16.95
2023-05-14T22:12:52.942Z,16.91
2023-05-14T22:18:49.409Z,16.91
2023-05-14T22:24:42.099Z,16.74
2023-05-14T22:30:33.415Z,16.76
2023-05-14T22:36:24.197Z,16.79
2023-05-14T22:42:11.600Z,16.79
2023-05-14T22:47:58.959Z,16.85
2023-05-14T22:53:47.129Z,16.62
2023-05-14T22:59:39.610Z,16.50
2023-05-14T23:05:35.253Z,16.66
2023-05-14T23:11:28.425Z,16.60
2023-05-14T23:17:19.136Z,16.60
2023-05-14T23:23:07.960Z,16.44
2023-05-14T23:29:01.472Z,16.33
2023-05-14T23:34:48.323Z,16.29
2023-05-14T23:40:35.346Z,16.51
2023-05-14T23:46:22.418Z,16.42
2023-05-14T23:52:09.498Z,16.32
2023-05-14T23:57:59.597Z,16.23
